sensor_id;sensor_type;location;lat;lon;timestamp;pressure;altitude;pressure_sealevel;temperature;humidity
58367;BME280;57745;42.524;12.052;2024-01-25T00:01:10;97504.59;;;12.71;64.83
58367;BME280;57745;42.524;12.052;2024-01-25T00:03:35;97499.31;;;12.84;64.32
58367;BME280;57745;42.524;12.052;2024-01-25T00:06:01;97493.38;;;12.89;63.52
58367;BME280;57745;42.524;12.052;2024-01-25T00:08:27;97487.59;;;12.64;64.16
58367;BME280;57745;42.524;12.052;2024-01-25T00:10:53;97493.03;;;12.87;63.17
58367;BME280;57745;42.524;12.052;2024-01-25T00:13:18;97485.75;;;12.80;63.42
58367;BME280;57745;42.524;12.052;2024-01-25T00:15:44;97485.44;;;12.75;63.77
58367;BME280;57745;42.524;12.052;2024-01-25T00:18:09;97478.22;;;12.88;63.07
58367;BME280;57745;42.524;12.052;2024-01-25T00:20:35;97483.41;;;12.59;64.26
58367;BME280;57745;42.524;12.052;2024-01-25T00:23:00;97478.59;;;12.67;63.86
58367;BME280;57745;42.524;12.052;2024-01-25T00:25:26;97480.78;;;12.75;63.63
58367;BME280;57745;42.524;12.052;2024-01-25T00:27:52;97483.91;;;12.50;64.38
58367;BME280;57745;42.524;12.052;2024-01-25T00:30:18;97477.88;;;12.63;63.87
58367;BME280;57745;42.524;12.052;2024-01-25T00:32:43;97487.47;;;12.71;63.99
58367;BME280;57745;42.524;12.052;2024-01-25T00:35:09;97499.41;;;12.77;63.54
58367;BME280;57745;42.524;12.052;2024-01-25T00:37:36;97492.78;;;12.78;63.34
58367;BME280;57745;42.524;12.052;2024-01-25T00:40:03;97481.78;;;12.62;64.29
58367;BME280;57745;42.524;12.052;2024-01-25T00:42:30;97475.09;;;12.89;63.67
58367;BME280;57745;42.524;12.052;2024-01-25T00:44:56;97463.84;;;12.87;63.18
58367;BME280;57745;42.524;12.052;2024-01-25T00:47:23;97468.44;;;12.71;64.63
58367;BME280;57745;42.524;12.052;2024-01-25T00:49:48;97466.75;;;12.77;64.51
58367;BME280;57745;42.524;12.052;2024-01-25T00:52:14;97464.56;;;12.91;64.18
58367;BME280;57745;42.524;12.052;2024-01-25T00:54:40;97463.94;;;12.84;64.56
58367;BME280;57745;42.524;12.052;2024-01-25T00:57:06;97471.19;;;12.90;64.19
58367;BME280;57745;42.524;12.052;2024-01-25T00:59:32;97463.94;;;12.84;64.29
58367;BME280;57745;42.524;12.052;2024-01-25T01:01:58;97464.56;;;13.11;63.55
58367;BME280;57745;42.524;12.052;2024-01-25T01:04:25;97475.63;;;13.04;63.74
58367;BME280;57745;42.524;12.052;2024-01-25T01:06:51;97465.19;;;12.99;63.95
58367;BME280;57745;42.524;12.052;2024-01-25T01:09:16;97458.91;;;12.82;64.53
58367;BME280;57745;42.524;12.052;2024-01-25T01:11:43;97459.78;;;12.76;64.91
58367;BME280;57745;42.524;12.052;2024-01-25T01:14:08;97458.94;;;12.79;64.87
58367;BME280;57745;42.524;12.052;2024-01-25T01:16:33;97471.13;;;12.94;64.69
58367;BME280;57745;42.524;12.052;2024-01-25T01:19:01;97463.91;;;13.07;63.39
58367;BME280;57745;42.524;12.052;2024-01-25T01:21:31;97456.84;;;13.10;63.75
58367;BME280;57745;42.524;12.052;2024-01-25T01:23:57;97463.19;;;13.03;63.74
58367;BME280;57745;42.524;12.052;2024-01-25T01:26:22;97467.81;;;13.06;63.79
58367;BME280;57745;42.524;12.052;2024-01-25T01:28:48;97460.09;;;13.01;64.21
58367;BME280;57745;42.524;12.052;2024-01-25T01:31:13;97467.44;;;13.04;63.61
58367;BME280;57745;42.524;12.052;2024-01-25T01:33:39;97466.41;;;12.98;64.39
58367;BME280;57745;42.524;12.052;2024-01-25T01:36:05;97463.31;;;12.96;64.23
58367;BME280;57745;42.524;12.052;2024-01-25T01:38:30;97449.19;;;12.81;64.77
58367;BME280;57745;42.524;12.052;2024-01-25T01:40:56;97462.41;;;13.03;64.34
58367;BME280;57745;42.524;12.052;2024-01-25T01:43:21;97455.50;;;12.98;64.24
58367;BME280;57745;42.524;12.052;2024-01-25T01:45:48;97451.53;;;13.03;64.43
58367;BME280;57745;42.524;12.052;2024-01-25T01:48:15;97454.66;;;13.01;64.31
58367;BME280;57745;42.524;12.052;2024-01-25T01:50:42;97446.13;;;12.99;64.64
58367;BME280;57745;42.524;12.052;2024-01-25T01:53:10;97443.66;;;13.08;63.97
58367;BME280;57745;42.524;12.052;2024-01-25T01:55:36;97446.84;;;13.03;63.95
58367;BME280;57745;42.524;12.052;2024-01-25T01:58:02;97440.19;;;12.84;64.56
58367;BME280;57745;42.524;12.052;2024-01-25T02:00:29;97446.84;;;13.03;64.05
58367;BME280;57745;42.524;12.052;2024-01-25T02:02:54;97442.22;;;13.00;64.34
58367;BME280;57745;42.524;12.052;2024-01-25T02:05:20;97427.16;;;12.95;64.09
58367;BME280;57745;42.524;12.052;2024-01-25T02:07:45;97423.41;;;13.09;63.56
58367;BME280;57745;42.524;12.052;2024-01-25T02:10:11;97420.13;;;12.98;63.95
58367;BME280;57745;42.524;12.052;2024-01-25T02:12:37;97415.41;;;12.79;64.50
58367;BME280;57745;42.524;12.052;2024-01-25T02:15:03;97415.13;;;12.93;63.93
58367;BME280;57745;42.524;12.052;2024-01-25T02:17:29;97407.84;;;12.86;64.30
58367;BME280;57745;42.524;12.052;2024-01-25T02:19:55;97412.63;;;12.82;64.45
58367;BME280;57745;42.524;12.052;2024-01-25T02:22:20;97404.50;;;12.99;64.04
58367;BME280;57745;42.524;12.052;2024-01-25T02:24:46;97407.31;;;12.95;64.08
58367;BME280;57745;42.524;12.052;2024-01-25T02:27:11;97391.34;;;12.97;64.41
58367;BME280;57745;42.524;12.052;2024-01-25T02:29:37;97388.75;;;12.90;64.63
58367;BME280;57745;42.524;12.052;2024-01-25T02:32:03;97400.34;;;12.94;64.01
58367;BME280;57745;42.524;12.052;2024-01-25T02:34:28;97394.81;;;12.78;65.01
58367;BME280;57745;42.524;12.052;2024-01-25T02:36:54;97390.22;;;12.94;63.92
58367;BME280;57745;42.524;12.052;2024-01-25T02:39:19;97385.66;;;12.88;64.42
58367;BME280;57745;42.524;12.052;2024-01-25T02:41:45;97376.47;;;12.82;64.62
58367;BME280;57745;42.524;12.052;2024-01-25T02:44:11;97362.28;;;12.90;64.05
58367;BME280;57745;42.524;12.052;2024-01-25T02:46:37;97365.38;;;12.73;64.27
58367;BME280;57745;42.524;12.052;2024-01-25T02:49:03;97356.44;;;12.92;63.54
58367;BME280;57745;42.524;12.052;2024-01-25T02:51:29;97349.50;;;12.68;64.22
58367;BME280;57745;42.524;12.052;2024-01-25T02:53:54;97355.97;;;12.74;63.87
58367;BME280;57745;42.524;12.052;2024-01-25T02:56:20;97348.06;;;12.83;63.68
58367;BME280;57745;42.524;12.052;2024-01-25T02:58:45;97350.22;;;12.72;63.97
58367;BME280;57745;42.524;12.052;2024-01-25T03:01:11;97347.03;;;12.53;64.14
58367;BME280;57745;42.524;12.052;2024-01-25T03:03:36;97340.56;;;12.67;63.76
58367;BME280;57745;42.524;12.052;2024-01-25T03:06:02;97348.31;;;12.69;63.83
58367;BME280;57745;42.524;12.052;2024-01-25T03:08:28;97325.22;;;12.77;63.44
58367;BME280;57745;42.524;12.052;2024-01-25T03:10:53;97333.69;;;12.82;63.04
58367;BME280;57745;42.524;12.052;2024-01-25T03:13:18;97327.72;;;12.68;63.10
58367;BME280;57745;42.524;12.052;2024-01-25T03:15:44;97326.59;;;12.65;63.05
58367;BME280;57745;42.524;12.052;2024-01-25T03:18:10;97324.66;;;12.66;63.50
58367;BME280;57745;42.524;12.052;2024-01-25T03:20:36;97324.31;;;12.64;63.31
58367;BME280;57745;42.524;12.052;2024-01-25T03:23:01;97321.81;;;12.73;63.11
58367;BME280;57745;42.524;12.052;2024-01-25T03:25:28;97329.63;;;12.71;62.72
58367;BME280;57745;42.524;12.052;2024-01-25T03:27:53;97337.84;;;12.67;63.16
58367;BME280;57745;42.524;12.052;2024-01-25T03:30:19;97335.53;;;12.66;63.13
58367;BME280;57745;42.524;12.052;2024-01-25T03:32:46;97336.16;;;12.53;63.67
58367;BME280;57745;42.524;12.052;2024-01-25T03:35:12;97327.03;;;12.64;62.94
58367;BME280;57745;42.524;12.052;2024-01-25T03:37:37;97334.50;;;12.59;63.40
58367;BME280;57745;42.524;12.052;2024-01-25T03:40:03;97325.56;;;12.79;63.02
58367;BME280;57745;42.524;12.052;2024-01-25T03:42:30;97331.06;;;12.55;63.38
58367;BME280;57745;42.524;12.052;2024-01-25T03:44:56;97327.78;;;12.64;63.25
58367;BME280;57745;42.524;12.052;2024-01-25T03:47:21;97320.34;;;12.68;63.01
58367;BME280;57745;42.524;12.052;2024-01-25T03:49:47;97337.53;;;12.85;62.48
58367;BME280;57745;42.524;12.052;2024-01-25T03:52:13;97325.38;;;12.70;62.97
58367;BME280;57745;42.524;12.052;2024-01-25T03:54:38;97325.16;;;12.80;62.94
58367;BME280;57745;42.524;12.052;2024-01-25T03:57:04;97333.53;;;12.70;63.07
58367;BME280;57745;42.524;12.052;2024-01-25T03:59:30;97326.28;;;12.83;62.42
58367;BME280;57745;42.524;12.052;2024-01-25T04:01:55;97332.00;;;12.69;63.03
58367;BME280;57745;42.524;12.052;2024-01-25T04:04:21;97329.47;;;12.58;63.02
58367;BME280;57745;42.524;12.052;2024-01-25T04:06:46;97330.59;;;12.61;63.18
58367;BME280;57745;42.524;12.052;2024-01-25T04:09:12;97329.97;;;12.73;62.56
58367;BME280;57745;42.524;12.052;2024-01-25T04:11:39;97314.19;;;12.64;63.21
58367;BME280;57745;42.524;12.052;2024-01-25T04:14:04;97314.63;;;12.82;62.72
58367;BME280;57745;42.524;12.052;2024-01-25T04:16:30;97302.59;;;12.80;62.05
58367;BME280;57745;42.524;12.052;2024-01-25T04:18:56;97294.31;;;12.67;62.67
58367;BME280;57745;42.524;12.052;2024-01-25T04:21:21;97324.81;;;12.58;63.11
58367;BME280;57745;42.524;12.052;2024-01-25T04:23:47;97303.94;;;12.72;63.16
58367;BME280;57745;42.524;12.052;2024-01-25T04:26:14;97296.63;;;12.69;62.76
58367;BME280;57745;42.524;12.052;2024-01-25T04:28:39;97316.13;;;12.64;63.17
58367;BME280;57745;42.524;12.052;2024-01-25T04:31:05;97295.06;;;12.68;62.52
58367;BME280;57745;42.524;12.052;2024-01-25T04:33:30;97313.41;;;12.64;62.95
58367;BME280;57745;42.524;12.052;2024-01-25T04:35:56;97324.53;;;12.73;62.46
58367;BME280;57745;42.524;12.052;2024-01-25T04:38:21;97322.91;;;12.75;62.71
58367;BME280;57745;42.524;12.052;2024-01-25T04:40:47;97321.47;;;12.71;62.86
58367;BME280;57745;42.524;12.052;2024-01-25T04:43:12;97321.09;;;12.88;61.97
58367;BME280;57745;42.524;12.052;2024-01-25T04:45:39;97323.25;;;12.57;62.97
58367;BME280;57745;42.524;12.052;2024-01-25T04:48:05;97315.78;;;12.62;62.73
58367;BME280;57745;42.524;12.052;2024-01-25T04:50:30;97321.47;;;12.71;62.92
58367;BME280;57745;42.524;12.052;2024-01-25T04:52:56;97297.16;;;12.80;62.39
58367;BME280;57745;42.524;12.052;2024-01-25T04:55:21;97319.28;;;12.62;62.52
58367;BME280;57745;42.524;12.052;2024-01-25T04:57:46;97333.38;;;12.57;62.79
58367;BME280;57745;42.524;12.052;2024-01-25T05:00:13;97329.59;;;12.51;63.24
58367;BME280;57745;42.524;12.052;2024-01-25T05:02:39;97334.00;;;12.45;63.26
58367;BME280;57745;42.524;12.052;2024-01-25T05:05:04;97351.50;;;12.64;62.63
58367;BME280;57745;42.524;12.052;2024-01-25T05:07:30;97349.72;;;12.57;62.75
58367;BME280;57745;42.524;12.052;2024-01-25T05:09:55;97347.81;;;12.74;62.08
58367;BME280;57745;42.524;12.052;2024-01-25T05:12:21;97346.63;;;12.55;62.61
58367;BME280;57745;42.524;12.052;2024-01-25T05:14:46;97353.19;;;12.77;62.30
58367;BME280;57745;42.524;12.052;2024-01-25T05:17:12;97352.69;;;12.63;62.41
58367;BME280;57745;42.524;12.052;2024-01-25T05:19:37;97341.53;;;12.77;61.89
58367;BME280;57745;42.524;12.052;2024-01-25T05:22:02;97355.16;;;12.77;61.92
58367;BME280;57745;42.524;12.052;2024-01-25T05:24:32;97353.69;;;12.92;61.32
58367;BME280;57745;42.524;12.052;2024-01-25T05:26:58;97344.00;;;12.71;62.33
58367;BME280;57745;42.524;12.052;2024-01-25T05:29:23;97344.78;;;12.72;62.32
58367;BME280;57745;42.524;12.052;2024-01-25T05:31:49;97332.91;;;12.82;61.49
58367;BME280;57745;42.524;12.052;2024-01-25T05:34:15;97331.56;;;12.70;61.79
58367;BME280;57745;42.524;12.052;2024-01-25T05:36:40;97346.72;;;12.91;61.36
58367;BME280;57745;42.524;12.052;2024-01-25T05:39:07;97328.09;;;12.70;61.87
58367;BME280;57745;42.524;12.052;2024-01-25T05:41:33;97333.25;;;12.84;61.40
58367;BME280;57745;42.524;12.052;2024-01-25T05:43:59;97334.28;;;12.90;61.13
58367;BME280;57745;42.524;12.052;2024-01-25T05:46:26;97336.88;;;12.97;61.10
58367;BME280;57745;42.524;12.052;2024-01-25T05:48:52;97343.16;;;12.74;61.57
58367;BME280;57745;42.524;12.052;2024-01-25T05:51:17;97337.34;;;12.52;62.89
58367;BME280;57745;42.524;12.052;2024-01-25T05:53:43;97339.88;;;12.83;61.82
58367;BME280;57745;42.524;12.052;2024-01-25T05:56:08;97340.56;;;12.67;62.24
58367;BME280;57745;42.524;12.052;2024-01-25T05:58:33;97333.72;;;12.79;61.69
58367;BME280;57745;42.524;12.052;2024-01-25T06:00:59;97330.25;;;12.78;62.16
58367;BME280;57745;42.524;12.052;2024-01-25T06:03:24;97339.16;;;12.99;61.14
58367;BME280;57745;42.524;12.052;2024-01-25T06:05:50;97337.06;;;12.67;62.35
58367;BME280;57745;42.524;12.052;2024-01-25T06:08:15;97334.28;;;12.90;61.56
58367;BME280;57745;42.524;12.052;2024-01-25T06:10:41;97338.41;;;12.78;62.32
58367;BME280;57745;42.524;12.052;2024-01-25T06:13:08;97340.97;;;12.66;63.04
58367;BME280;57745;42.524;12.052;2024-01-25T06:15:33;97346.72;;;12.91;61.94
58367;BME280;57745;42.524;12.052;2024-01-25T06:17:59;97343.88;;;12.98;62.20
58367;BME280;57745;42.524;12.052;2024-01-25T06:20:24;97339.16;;;12.99;61.92
58367;BME280;57745;42.524;12.052;2024-01-25T06:22:50;97338.84;;;12.97;61.73
58367;BME280;57745;42.524;12.052;2024-01-25T06:25:15;97334.66;;;12.92;61.56
58367;BME280;57745;42.524;12.052;2024-01-25T06:27:41;97338.47;;;12.75;62.70
58367;BME280;57745;42.524;12.052;2024-01-25T06:30:06;97330.81;;;12.89;62.26
58367;BME280;57745;42.524;12.052;2024-01-25T06:32:32;97333.16;;;12.87;61.81
58367;BME280;57745;42.524;12.052;2024-01-25T06:34:57;97348.69;;;12.71;62.01
58367;BME280;57745;42.524;12.052;2024-01-25T06:37:23;97346.31;;;12.73;62.59
58367;BME280;57745;42.524;12.052;2024-01-25T06:39:48;97342.72;;;12.76;61.97
58367;BME280;57745;42.524;12.052;2024-01-25T06:42:14;97349.09;;;12.89;61.46
58367;BME280;57745;42.524;12.052;2024-01-25T06:44:39;97345.38;;;12.79;61.82
58367;BME280;57745;42.524;12.052;2024-01-25T06:47:05;97347.00;;;12.97;61.12
58367;BME280;57745;42.524;12.052;2024-01-25T06:49:31;97353.50;;;12.83;61.40
58367;BME280;57745;42.524;12.052;2024-01-25T06:51:56;97345.81;;;12.98;61.06
58367;BME280;57745;42.524;12.052;2024-01-25T06:54:22;97339.47;;;12.84;61.41
58367;BME280;57745;42.524;12.052;2024-01-25T06:56:47;97344.16;;;12.84;61.41
58367;BME280;57745;42.524;12.052;2024-01-25T06:59:13;97342.53;;;12.67;61.96
58367;BME280;57745;42.524;12.052;2024-01-25T07:01:38;97361.31;;;12.81;61.30
58367;BME280;57745;42.524;12.052;2024-01-25T07:04:04;97355.38;;;12.86;61.28
58367;BME280;57745;42.524;12.052;2024-01-25T07:06:30;97359.22;;;12.88;61.15
58367;BME280;57745;42.524;12.052;2024-01-25T07:08:56;97357.06;;;12.80;61.57
58367;BME280;57745;42.524;12.052;2024-01-25T07:11:21;97376.31;;;12.89;61.23
58367;BME280;57745;42.524;12.052;2024-01-25T07:13:47;97377.84;;;12.90;61.29
58367;BME280;57745;42.524;12.052;2024-01-25T07:16:12;97370.75;;;12.96;61.35
58367;BME280;57745;42.524;12.052;2024-01-25T07:18:37;97365.06;;;12.87;61.52
58367;BME280;57745;42.524;12.052;2024-01-25T07:21:03;97366.41;;;12.79;61.67
58367;BME280;57745;42.524;12.052;2024-01-25T07:23:30;97358.66;;;12.97;61.59
58367;BME280;57745;42.524;12.052;2024-01-25T07:25:55;97358.66;;;12.77;62.33
58367;BME280;57745;42.524;12.052;2024-01-25T07:28:21;97354.03;;;12.74;62.41
58367;BME280;57745;42.524;12.052;2024-01-25T07:30:47;97346.44;;;13.05;61.77
58367;BME280;57745;42.524;12.052;2024-01-25T07:33:13;97352.56;;;12.89;62.15
58367;BME280;57745;42.524;12.052;2024-01-25T07:35:39;97352.78;;;12.79;62.21
58367;BME280;57745;42.524;12.052;2024-01-25T07:38:13;97354.81;;;12.94;62.15
58367;BME280;57745;42.524;12.052;2024-01-25T07:40:39;97351.34;;;12.94;62.37
58367;BME280;57745;42.524;12.052;2024-01-25T07:43:05;97348.97;;;12.96;61.90
58367;BME280;57745;42.524;12.052;2024-01-25T07:45:31;97346.28;;;13.12;61.76
58367;BME280;57745;42.524;12.052;2024-01-25T07:47:56;97344.00;;;12.91;62.17
58367;BME280;57745;42.524;12.052;2024-01-25T07:50:22;97348.03;;;13.03;62.08
58367;BME280;57745;42.524;12.052;2024-01-25T07:52:47;97349.94;;;13.06;62.12
58367;BME280;57745;42.524;12.052;2024-01-25T07:55:15;97352.03;;;12.98;62.07
58367;BME280;57745;42.524;12.052;2024-01-25T07:57:40;97356.50;;;13.08;61.78
58367;BME280;57745;42.524;12.052;2024-01-25T08:00:07;97356.56;;;13.05;62.21
58367;BME280;57745;42.524;12.052;2024-01-25T08:02:34;97359.97;;;12.89;62.80
58367;BME280;57745;42.524;12.052;2024-01-25T08:04:59;97360.75;;;13.09;61.98
58367;BME280;57745;42.524;12.052;2024-01-25T08:07:25;97356.50;;;13.08;62.31
58367;BME280;57745;42.524;12.052;2024-01-25T08:09:50;97361.59;;;13.06;62.17
58367;BME280;57745;42.524;12.052;2024-01-25T08:12:17;97362.16;;;13.17;61.80
58367;BME280;57745;42.524;12.052;2024-01-25T08:14:43;97362.63;;;12.92;62.85
58367;BME280;57745;42.524;12.052;2024-01-25T08:17:09;97356.84;;;13.10;62.26
58367;BME280;57745;42.524;12.052;2024-01-25T08:19:35;97351.19;;;13.01;63.12
58367;BME280;57745;42.524;12.052;2024-01-25T08:22:00;97355.94;;;13.17;62.22
58367;BME280;57745;42.524;12.052;2024-01-25T08:24:26;97363.28;;;13.20;61.98
58367;BME280;57745;42.524;12.052;2024-01-25T08:26:51;97358.25;;;13.18;62.26
58367;BME280;57745;42.524;12.052;2024-01-25T08:29:17;97364.16;;;13.13;62.86
58367;BME280;57745;42.524;12.052;2024-01-25T08:31:42;97358.31;;;13.15;63.12
58367;BME280;57745;42.524;12.052;2024-01-25T08:34:07;97358.63;;;13.20;62.59
58367;BME280;57745;42.524;12.052;2024-01-25T08:36:33;97366.84;;;13.17;62.73
58367;BME280;57745;42.524;12.052;2024-01-25T08:38:58;97362.72;;;13.09;63.46
58367;BME280;57745;42.524;12.052;2024-01-25T08:41:24;97358.03;;;13.09;63.31
58367;BME280;57745;42.524;12.052;2024-01-25T08:43:49;97358.44;;;13.08;63.35
58367;BME280;57745;42.524;12.052;2024-01-25T08:46:15;97366.50;;;13.15;63.14
58367;BME280;57745;42.524;12.052;2024-01-25T08:48:41;97359.69;;;13.03;63.89
58367;BME280;57745;42.524;12.052;2024-01-25T08:51:07;97368.38;;;13.18;63.26
58367;BME280;57745;42.524;12.052;2024-01-25T08:53:33;97366.91;;;13.33;62.51
58367;BME280;57745;42.524;12.052;2024-01-25T08:55:59;97366.53;;;13.11;63.75
58367;BME280;57745;42.524;12.052;2024-01-25T08:58:24;97367.25;;;13.15;63.10
58367;BME280;57745;42.524;12.052;2024-01-25T09:00:50;97372.50;;;13.06;63.99
58367;BME280;57745;42.524;12.052;2024-01-25T09:03:16;97379.34;;;13.14;63.68
58367;BME280;57745;42.524;12.052;2024-01-25T09:05:42;97377.72;;;13.37;62.59
58367;BME280;57745;42.524;12.052;2024-01-25T09:08:13;97370.53;;;13.26;62.78
58367;BME280;57745;42.524;12.052;2024-01-25T09:10:40;97373.50;;;13.52;61.74
58367;BME280;57745;42.524;12.052;2024-01-25T09:13:06;97365.28;;;13.36;63.05
58367;BME280;57745;42.524;12.052;2024-01-25T09:15:31;97365.28;;;13.36;62.79
58367;BME280;57745;42.524;12.052;2024-01-25T09:17:57;97366.97;;;13.29;62.37
58367;BME280;57745;42.524;12.052;2024-01-25T09:20:22;97368.44;;;13.34;62.67
58367;BME280;57745;42.524;12.052;2024-01-25T09:22:48;97371.06;;;13.57;61.76
58367;BME280;57745;42.524;12.052;2024-01-25T09:25:13;97369.41;;;13.44;62.50
58367;BME280;57745;42.524;12.052;2024-01-25T09:27:39;97373.09;;;13.53;61.58
58367;BME280;57745;42.524;12.052;2024-01-25T09:30:08;97381.13;;;13.41;62.60
58367;BME280;57745;42.524;12.052;2024-01-25T09:32:33;97379.47;;;13.27;62.60
58367;BME280;57745;42.524;12.052;2024-01-25T09:34:59;97390.19;;;13.18;63.31
58367;BME280;57745;42.524;12.052;2024-01-25T09:37:25;97391.22;;;13.44;62.30
58367;BME280;57745;42.524;12.052;2024-01-25T09:39:50;97385.81;;;13.40;62.41
58367;BME280;57745;42.524;12.052;2024-01-25T09:42:19;97383.16;;;13.37;62.70
58367;BME280;57745;42.524;12.052;2024-01-25T09:44:45;97384.06;;;13.50;62.67
58367;BME280;57745;42.524;12.052;2024-01-25T09:47:11;97392.75;;;13.45;62.52
58367;BME280;57745;42.524;12.052;2024-01-25T09:49:37;97394.59;;;13.48;61.83
58367;BME280;57745;42.524;12.052;2024-01-25T09:52:03;97395.88;;;13.43;62.01
58367;BME280;57745;42.524;12.052;2024-01-25T09:54:35;97395.75;;;13.30;62.62
58367;BME280;57745;42.524;12.052;2024-01-25T09:57:09;97389.84;;;13.52;61.38
58367;BME280;57745;42.524;12.052;2024-01-25T09:59:37;97386.00;;;13.49;61.69
58367;BME280;57745;42.524;12.052;2024-01-25T10:02:03;97383.81;;;13.60;61.15
58367;BME280;57745;42.524;12.052;2024-01-25T10:04:29;97385.22;;;13.33;61.95
58367;BME280;57745;42.524;12.052;2024-01-25T10:06:55;97385.41;;;13.42;61.76
58367;BME280;57745;42.524;12.052;2024-01-25T10:09:22;97385.44;;;13.58;61.27
58367;BME280;57745;42.524;12.052;2024-01-25T10:11:48;97393.22;;;13.40;61.72
58367;BME280;57745;42.524;12.052;2024-01-25T10:14:13;97384.88;;;13.66;60.94
58367;BME280;57745;42.524;12.052;2024-01-25T10:16:39;97386.28;;;13.55;61.19
58367;BME280;57745;42.524;12.052;2024-01-25T10:19:06;97380.94;;;13.32;61.95
58367;BME280;57745;42.524;12.052;2024-01-25T10:21:34;97377.19;;;13.61;60.99
58367;BME280;57745;42.524;12.052;2024-01-25T10:24:00;97382.19;;;13.47;61.38
58367;BME280;57745;42.524;12.052;2024-01-25T10:26:26;97380.94;;;13.32;61.83
58367;BME280;57745;42.524;12.052;2024-01-25T10:28:53;97384.94;;;13.63;60.65
58367;BME280;57745;42.524;12.052;2024-01-25T10:31:22;97372.34;;;13.69;60.70
58367;BME280;57745;42.524;12.052;2024-01-25T10:33:48;97367.81;;;13.26;61.85
58367;BME280;57745;42.524;12.052;2024-01-25T10:36:13;97365.59;;;13.57;61.13
58367;BME280;57745;42.524;12.052;2024-01-25T10:38:39;97366.22;;;13.65;60.74
58367;BME280;57745;42.524;12.052;2024-01-25T10:41:06;97356.66;;;13.57;61.01
58367;BME280;57745;42.524;12.052;2024-01-25T10:43:32;97352.41;;;13.56;61.39
58367;BME280;57745;42.524;12.052;2024-01-25T10:45:59;97345.22;;;13.46;60.75
58367;BME280;57745;42.524;12.052;2024-01-25T10:48:26;97342.41;;;13.49;61.43
58367;BME280;57745;42.524;12.052;2024-01-25T10:50:55;97330.75;;;13.49;61.04
58367;BME280;57745;42.524;12.052;2024-01-25T10:53:24;97339.44;;;13.44;61.35
58367;BME280;57745;42.524;12.052;2024-01-25T10:55:50;97339.66;;;13.69;60.14
58367;BME280;57745;42.524;12.052;2024-01-25T10:58:16;97341.22;;;13.50;60.93
58367;BME280;57745;42.524;12.052;2024-01-25T11:00:42;97339.78;;;13.62;60.81
58367;BME280;57745;42.524;12.052;2024-01-25T11:03:14;97338.59;;;13.63;60.43
58367;BME280;57745;42.524;12.052;2024-01-25T11:05:39;97334.53;;;13.71;60.28
58367;BME280;57745;42.524;12.052;2024-01-25T11:08:17;97325.16;;;13.88;59.69
58367;BME280;57745;42.524;12.052;2024-01-25T11:10:49;97324.22;;;13.79;60.17
58367;BME280;57745;42.524;12.052;2024-01-25T11:13:14;97326.84;;;13.66;60.57
58367;BME280;57745;42.524;12.052;2024-01-25T11:15:40;97320.38;;;13.60;60.43
58367;BME280;57745;42.524;12.052;2024-01-25T11:18:08;97319.63;;;13.59;60.57
58367;BME280;57745;42.524;12.052;2024-01-25T11:20:35;97322.09;;;13.18;61.69
58367;BME280;57745;42.524;12.052;2024-01-25T11:23:03;97322.44;;;13.72;59.58
58367;BME280;57745;42.524;12.052;2024-01-25T11:25:33;97315.97;;;13.82;59.73
58367;BME280;57745;42.524;12.052;2024-01-25T11:28:00;97314.00;;;13.66;60.10
58367;BME280;57745;42.524;12.052;2024-01-25T11:30:26;97305.75;;;13.70;60.16
58367;BME280;57745;42.524;12.052;2024-01-25T11:32:52;97309.56;;;13.89;59.11
58367;BME280;57745;42.524;12.052;2024-01-25T11:35:17;97301.81;;;13.55;60.43
58367;BME280;57745;42.524;12.052;2024-01-25T11:37:45;97296.28;;;13.58;60.05
58367;BME280;57745;42.524;12.052;2024-01-25T11:40:12;97292.97;;;13.83;59.38
58367;BME280;57745;42.524;12.052;2024-01-25T11:42:39;97286.81;;;13.79;59.22
58367;BME280;57745;42.524;12.052;2024-01-25T11:45:08;97284.09;;;13.95;58.83
58367;BME280;57745;42.524;12.052;2024-01-25T11:47:35;97285.97;;;13.82;59.20
58367;BME280;57745;42.524;12.052;2024-01-25T11:50:00;97281.38;;;13.95;58.72
58367;BME280;57745;42.524;12.052;2024-01-25T11:52:26;97284.19;;;13.76;59.72
58367;BME280;57745;42.524;12.052;2024-01-25T11:54:51;97282.81;;;13.68;60.29
58367;BME280;57745;42.524;12.052;2024-01-25T11:57:17;97275.16;;;13.95;58.93
58367;BME280;57745;42.524;12.052;2024-01-25T11:59:43;97267.94;;;13.72;60.21
58367;BME280;57745;42.524;12.052;2024-01-25T12:02:15;97263.75;;;13.84;59.45
58367;BME280;57745;42.524;12.052;2024-01-25T12:04:40;97264.06;;;14.02;58.99
58367;BME280;57745;42.524;12.052;2024-01-25T12:07:07;97260.06;;;13.74;59.39
58367;BME280;57745;42.524;12.052;2024-01-25T12:09:32;97252.47;;;13.98;58.93
58367;BME280;57745;42.524;12.052;2024-01-25T12:12:00;97243.50;;;13.97;58.80
58367;BME280;57745;42.524;12.052;2024-01-25T12:14:27;97239.44;;;13.89;58.91
58367;BME280;57745;42.524;12.052;2024-01-25T12:16:55;97238.59;;;13.92;59.29
58367;BME280;57745;42.524;12.052;2024-01-25T12:19:21;97244.13;;;13.89;59.04
58367;BME280;57745;42.524;12.052;2024-01-25T12:21:47;97249.31;;;13.99;58.91
58367;BME280;57745;42.524;12.052;2024-01-25T12:24:12;97236.22;;;13.78;60.10
58367;BME280;57745;42.524;12.052;2024-01-25T12:26:38;97236.00;;;14.01;59.14
58367;BME280;57745;42.524;12.052;2024-01-25T12:29:03;97234.97;;;14.12;58.73
58367;BME280;57745;42.524;12.052;2024-01-25T12:31:31;97234.09;;;14.15;58.72
58367;BME280;57745;42.524;12.052;2024-01-25T12:33:56;97230.47;;;14.05;59.33
58367;BME280;57745;42.524;12.052;2024-01-25T12:36:23;97222.50;;;14.11;58.73
58367;BME280;57745;42.524;12.052;2024-01-25T12:38:48;97224.25;;;14.05;59.09
58367;BME280;57745;42.524;12.052;2024-01-25T12:41:14;97221.66;;;14.14;58.66
58367;BME280;57745;42.524;12.052;2024-01-25T12:43:40;97225.72;;;14.22;58.76